Time;durP1;ratioP1;P1;durP2;ratioP2;P2;SDS_P1;SDS_P2;PMS_P1;PMS_P2;Temp;Humidity;BMP_temperature;BMP_pressure;BME280_temperature;BME280_humidity;BME280_pressure;Samples;Min_cycle;Max_cycle;Signal;HPM_P1;HPM_P2
2022/04/14 00:02:07;;;;;;;21.75;6.45;;;;;;;;;;6255085;23;20016;-87
2022/04/14 00:04:35;;;;;;;15.60;6.43;;;;;;;;;;6255471;23;20030;-87
2022/04/14 00:07:03;;;;;;;13.27;6.47;;;;;;;;;;6229102;23;20070;-87
2022/04/14 00:09:31;;;;;;;12.43;6.25;;;;;;;;;;6228486;23;20451;-87
2022/04/14 00:11:59;;;;;;;17.45;6.90;;;;;;;;;;6254761;23;20016;-87
2022/04/14 00:14:27;;;;;;;14.30;6.20;;;;;;;;;;6253891;23;20034;-85
2022/04/14 00:16:55;;;;;;;12.00;5.75;;;;;;;;;;6254075;23;20020;-85
2022/04/14 00:19:23;;;;;;;13.10;6.40;;;;;;;;;;6253901;23;20359;-85
2022/04/14 00:21:51;;;;;;;16.95;6.63;;;;;;;;;;6254188;23;20050;-85
2022/04/14 00:24:19;;;;;;;13.77;6.20;;;;;;;;;;6254682;23;20066;-85
2022/04/14 00:26:47;;;;;;;18.60;6.45;;;;;;;;;;6254124;23;20511;-86
2022/04/14 00:29:15;;;;;;;15.20;6.15;;;;;;;;;;6242930;23;20024;-86
2022/04/14 00:31:43;;;;;;;15.73;7.00;;;;;;;;;;6254459;23;20026;-86
2022/04/14 00:34:11;;;;;;;15.55;6.22;;;;;;;;;;6202555;23;20024;-86
2022/04/14 00:36:39;;;;;;;15.38;6.93;;;;;;;;;;6253791;23;20376;-86
2022/04/14 00:39:09;;;;;;;14.65;5.90;;;;;;;;;;6227646;23;20016;-86
2022/04/14 00:41:37;;;;;;;15.57;6.68;;;;;;;;;;6254287;23;20343;-86
2022/04/14 00:44:05;;;;;;;14.63;6.78;;;;;;;;;;6254245;23;20093;-86
2022/04/14 00:46:33;;;;;;;16.40;6.75;;;;;;;;;;6254321;23;20020;-86
2022/04/14 00:49:01;;;;;;;13.68;6.20;;;;;;;;;;6253993;23;20505;-86
2022/04/14 00:51:29;;;;;;;13.98;6.95;;;;;;;;;;6253972;23;20016;-87
2022/04/14 00:53:57;;;;;;;12.95;6.22;;;;;;;;;;6254708;23;20020;-88
2022/04/14 00:56:25;;;;;;;16.38;6.30;;;;;;;;;;6253886;23;20026;-88
2022/04/14 00:58:53;;;;;;;14.10;6.63;;;;;;;;;;6254092;23;20398;-88
2022/04/14 01:01:21;;;;;;;11.15;6.18;;;;;;;;;;6228123;23;20024;-88
2022/04/14 01:03:51;;;;;;;13.50;6.40;;;;;;;;;;6227672;23;20020;-88
2022/04/14 01:06:21;;;;;;;14.88;6.32;;;;;;;;;;6254290;23;20039;-88
2022/04/14 01:11:38;;;;;;;15.27;6.18;;;;;;;;;;6230992;23;20020;-88
2022/04/14 01:14:05;;;;;;;13.70;6.47;;;;;;;;;;6253949;23;20333;-88
2022/04/14 01:16:33;;;;;;;19.17;6.82;;;;;;;;;;6254286;23;20031;-88
2022/04/14 01:19:01;;;;;;;16.08;7.05;;;;;;;;;;6254378;23;20048;-88
2022/04/14 01:21:33;;;;;;;18.17;7.18;;;;;;;;;;6256087;23;20436;-88
2022/04/14 01:24:02;;;;;;;17.30;7.95;;;;;;;;;;6277295;22;20036;-88
2022/04/14 01:26:30;;;;;;;22.42;8.70;;;;;;;;;;6281016;22;20015;-88
2022/04/14 01:28:57;;;;;;;16.75;8.55;;;;;;;;;;6253964;23;20012;-88
2022/04/14 01:31:25;;;;;;;21.35;9.63;;;;;;;;;;6244902;23;20023;-88
2022/04/14 01:33:53;;;;;;;20.35;8.57;;;;;;;;;;6255630;23;20027;-88
2022/04/14 01:36:21;;;;;;;18.85;8.90;;;;;;;;;;6229731;23;20028;-88
2022/04/14 01:38:49;;;;;;;22.52;9.57;;;;;;;;;;6229894;23;20333;-88
2022/04/14 01:41:17;;;;;;;21.30;9.45;;;;;;;;;;6230216;23;20062;-88
2022/04/14 01:43:45;;;;;;;26.50;12.55;;;;;;;;;;6273415;23;20023;-88
2022/04/14 01:46:13;;;;;;;25.55;11.70;;;;;;;;;;6215530;23;20428;-88
2022/04/14 01:48:41;;;;;;;24.73;11.95;;;;;;;;;;6264390;23;20024;-88
2022/04/14 01:51:09;;;;;;;30.40;12.57;;;;;;;;;;6189706;23;20031;-88
2022/04/14 01:53:37;;;;;;;22.92;12.73;;;;;;;;;;6255942;23;20024;-86
2022/04/14 01:56:06;;;;;;;26.65;12.77;;;;;;;;;;6245624;23;20523;-86
2022/04/14 01:58:33;;;;;;;29.10;13.63;;;;;;;;;;6255732;23;20027;-86
2022/04/14 02:01:01;;;;;;;35.30;14.30;;;;;;;;;;6255845;23;20039;-86
2022/04/14 02:03:29;;;;;;;28.02;13.45;;;;;;;;;;6218978;23;20448;-86
2022/04/14 02:05:57;;;;;;;28.92;14.02;;;;;;;;;;6229553;23;20027;-86
2022/04/14 02:08:25;;;;;;;23.55;12.82;;;;;;;;;;6228985;23;20035;-86
2022/04/14 02:10:53;;;;;;;29.02;14.35;;;;;;;;;;6228635;23;20024;-86
2022/04/14 02:13:21;;;;;;;32.05;14.40;;;;;;;;;;6229278;23;20333;-86
2022/04/14 02:15:49;;;;;;;25.67;13.20;;;;;;;;;;6253930;23;20035;-85
2022/04/14 02:18:17;;;;;;;29.08;13.30;;;;;;;;;;6255148;23;20030;-85
2022/04/14 02:20:46;;;;;;;30.05;12.68;;;;;;;;;;6253524;23;20020;-85
2022/04/14 02:23:15;;;;;;;26.33;12.50;;;;;;;;;;6255234;23;20020;-85
2022/04/14 02:29:57;;;;;;;28.55;12.75;;;;;;;;;;6255216;23;20008;-85
2022/04/14 02:32:25;;;;;;;28.55;12.73;;;;;;;;;;6255300;23;20054;-85
2022/04/14 02:34:53;;;;;;;25.27;12.80;;;;;;;;;;6255108;23;20758;-85
2022/04/14 02:37:21;;;;;;;27.90;11.82;;;;;;;;;;6255047;23;20099;-85
2022/04/14 02:39:49;;;;;;;26.30;12.82;;;;;;;;;;6254939;23;20024;-85
2022/04/14 02:42:17;;;;;;;26.20;11.80;;;;;;;;;;6255143;23;20074;-87
2022/04/14 02:44:45;;;;;;;29.73;12.27;;;;;;;;;;6255861;23;20062;-87
2022/04/14 02:47:13;;;;;;;26.13;12.20;;;;;;;;;;6256065;23;20040;-87
2022/04/14 02:49:41;;;;;;;28.40;12.30;;;;;;;;;;6255537;23;20039;-87
2022/04/14 02:52:09;;;;;;;25.20;12.30;;;;;;;;;;6214241;23;20501;-87
2022/04/14 02:54:40;;;;;;;28.00;12.70;;;;;;;;;;6244357;23;20024;-87
2022/04/14 02:57:09;;;;;;;25.80;11.43;;;;;;;;;;6255964;23;20051;-87
2022/04/14 02:59:37;;;;;;;26.05;12.25;;;;;;;;;;6255494;23;20655;-87
2022/04/14 03:02:05;;;;;;;27.67;11.73;;;;;;;;;;6255518;23;20020;-87
2022/04/14 03:04:33;;;;;;;23.83;11.13;;;;;;;;;;6255106;23;20024;-87
2022/04/14 03:07:01;;;;;;;25.05;11.30;;;;;;;;;;6255573;23;20016;-87
2022/04/14 03:09:29;;;;;;;24.88;11.98;;;;;;;;;;6253762;23;20098;-87
2022/04/14 03:11:57;;;;;;;24.25;10.73;;;;;;;;;;6255337;23;20019;-87
2022/04/14 03:14:25;;;;;;;20.90;11.18;;;;;;;;;;6255325;23;20095;-87
2022/04/14 03:16:53;;;;;;;23.95;11.38;;;;;;;;;;6254222;23;20893;-87
2022/04/14 03:19:21;;;;;;;27.05;12.85;;;;;;;;;;6255428;23;20023;-87
2022/04/14 03:21:50;;;;;;;23.85;11.45;;;;;;;;;;6255110;23;20048;-87
2022/04/14 03:24:17;;;;;;;24.15;11.43;;;;;;;;;;6254789;23;20068;-87
2022/04/14 03:26:45;;;;;;;25.73;11.45;;;;;;;;;;6255265;23;20130;-87
2022/04/14 03:29:13;;;;;;;23.65;11.60;;;;;;;;;;6224525;23;20024;-87
2022/04/14 03:31:41;;;;;;;30.80;13.45;;;;;;;;;;6254426;23;20698;-87
2022/04/14 03:34:09;;;;;;;29.10;13.77;;;;;;;;;;6213356;23;20518;-87
2022/04/14 03:36:37;;;;;;;31.10;13.23;;;;;;;;;;6223260;23;20027;-87
2022/04/14 03:39:05;;;;;;;34.55;14.43;;;;;;;;;;6248199;23;20119;-87
2022/04/14 03:41:33;;;;;;;29.80;13.52;;;;;;;;;;6253478;23;20092;-87
2022/04/14 03:44:01;;;;;;;30.05;13.68;;;;;;;;;;6255163;23;20046;-87
2022/04/14 03:46:31;;;;;;;37.85;15.18;;;;;;;;;;6255190;23;20024;-87
2022/04/14 03:48:59;;;;;;;36.42;16.42;;;;;;;;;;6224009;23;20024;-87
2022/04/14 03:51:27;;;;;;;36.45;14.65;;;;;;;;;;6253256;23;20035;-87
2022/04/14 03:53:55;;;;;;;35.42;15.48;;;;;;;;;;6235154;23;20016;-87
2022/04/14 03:56:23;;;;;;;36.95;16.30;;;;;;;;;;6254493;23;20034;-87
2022/04/14 03:58:51;;;;;;;41.20;16.50;;;;;;;;;;6254543;23;20050;-87
2022/04/14 04:01:19;;;;;;;40.10;16.15;;;;;;;;;;6215755;23;20027;-87
2022/04/14 04:03:48;;;;;;;41.50;16.30;;;;;;;;;;6206036;23;20411;-87
2022/04/14 04:06:15;;;;;;;38.20;15.60;;;;;;;;;;6254817;23;20059;-87
2022/04/14 04:08:43;;;;;;;37.97;15.95;;;;;;;;;;6254744;23;20030;-87
2022/04/14 04:11:11;;;;;;;33.97;15.55;;;;;;;;;;6254871;23;20502;-87
2022/04/14 04:13:39;;;;;;;40.55;16.38;;;;;;;;;;6228577;23;20398;-87
2022/04/14 04:16:07;;;;;;;41.30;17.40;;;;;;;;;;6254939;23;20020;-87
2022/04/14 04:18:35;;;;;;;46.55;17.08;;;;;;;;;;6228265;23;20019;-87
2022/04/14 04:21:03;;;;;;;41.88;16.25;;;;;;;;;;6254523;23;20554;-88
2022/04/14 04:23:31;;;;;;;52.20;17.58;;;;;;;;;;6254358;23;20038;-88
2022/04/14 04:26:00;;;;;;;38.60;16.83;;;;;;;;;;6254221;23;20020;-88
2022/04/14 04:28:30;;;;;;;50.33;19.65;;;;;;;;;;6253308;23;20020;-88
2022/04/14 04:30:57;;;;;;;47.80;17.38;;;;;;;;;;6222820;23;20071;-88
2022/04/14 04:33:26;;;;;;;50.08;17.65;;;;;;;;;;6253301;23;20012;-88
2022/04/14 04:35:53;;;;;;;48.00;16.80;;;;;;;;;;6256809;23;20020;-88
2022/04/14 04:38:21;;;;;;;44.10;17.08;;;;;;;;;;6269283;23;20023;-88
2022/04/14 04:40:50;;;;;;;46.85;17.92;;;;;;;;;;6252454;23;20023;-88
2022/04/14 04:43:20;;;;;;;48.95;18.63;;;;;;;;;;6277681;23;20008;-88
2022/04/14 04:45:49;;;;;;;50.42;17.67;;;;;;;;;;6258019;23;20024;-88
2022/04/14 04:48:17;;;;;;;46.30;17.40;;;;;;;;;;6245016;23;20023;-87
2022/04/14 04:50:45;;;;;;;41.67;18.02;;;;;;;;;;6240653;23;20024;-88
2022/04/14 04:53:13;;;;;;;45.22;17.85;;;;;;;;;;6247938;23;20605;-88
2022/04/14 04:55:41;;;;;;;39.40;15.55;;;;;;;;;;6254720;23;20024;-88
2022/04/14 04:58:09;;;;;;;44.33;16.67;;;;;;;;;;6253255;23;20020;-88
2022/04/14 05:00:37;;;;;;;38.08;14.85;;;;;;;;;;6222721;23;20016;-88
2022/04/14 05:03:09;;;;;;;35.78;15.07;;;;;;;;;;6248578;23;20016;-88
2022/04/14 05:05:38;;;;;;;39.08;14.90;;;;;;;;;;6256298;23;20106;-88
2022/04/14 05:08:07;;;;;;;36.67;15.73;;;;;;;;;;6224635;23;20012;-88
2022/04/14 05:10:35;;;;;;;37.47;14.50;;;;;;;;;;6244558;23;20016;-88
2022/04/14 05:13:04;;;;;;;35.60;15.43;;;;;;;;;;6229529;23;20470;-88
2022/04/14 05:15:31;;;;;;;33.58;14.95;;;;;;;;;;6256028;23;20034;-88
2022/04/14 05:17:59;;;;;;;34.47;15.07;;;;;;;;;;6256433;23;20035;-88
2022/04/14 05:20:27;;;;;;;34.85;14.38;;;;;;;;;;6255969;23;20020;-88
2022/04/14 05:22:55;;;;;;;30.95;15.05;;;;;;;;;;6219829;23;20089;-88
2022/04/14 05:25:23;;;;;;;41.53;15.68;;;;;;;;;;6202900;23;20028;-88
2022/04/14 05:27:51;;;;;;;43.17;16.35;;;;;;;;;;6256145;23;20095;-88
2022/04/14 05:30:19;;;;;;;37.85;16.67;;;;;;;;;;6226607;23;20456;-88
2022/04/14 05:32:47;;;;;;;32.38;15.85;;;;;;;;;;6255271;23;20019;-88
2022/04/14 05:35:15;;;;;;;31.48;14.07;;;;;;;;;;6225843;23;20020;-88
2022/04/14 05:37:43;;;;;;;35.22;15.20;;;;;;;;;;6218980;23;20030;-88
2022/04/14 05:40:12;;;;;;;33.17;15.20;;;;;;;;;;6255767;23;20046;-88
2022/04/14 05:42:45;;;;;;;40.95;16.63;;;;;;;;;;6256330;23;20020;-88
2022/04/14 05:45:13;;;;;;;33.80;15.57;;;;;;;;;;6255616;23;20020;-88
2022/04/14 05:47:41;;;;;;;31.30;14.18;;;;;;;;;;6224725;23;20031;-88
2022/04/14 05:50:09;;;;;;;35.38;13.35;;;;;;;;;;6239569;23;20523;-88
2022/04/14 05:52:37;;;;;;;32.38;13.27;;;;;;;;;;6254544;23;20019;-88
2022/04/14 05:55:05;;;;;;;32.80;14.13;;;;;;;;;;6255215;23;20020;-88
2022/04/14 05:57:33;;;;;;;33.92;13.65;;;;;;;;;;6255427;23;20030;-88
2022/04/14 06:00:02;;;;;;;32.25;14.52;;;;;;;;;;6255367;23;20020;-88
2022/04/14 06:02:31;;;;;;;27.90;13.70;;;;;;;;;;6255793;23;20091;-88
2022/04/14 06:04:59;;;;;;;33.05;13.73;;;;;;;;;;6255709;23;20020;-88
2022/04/14 06:07:27;;;;;;;33.22;14.00;;;;;;;;;;6255384;23;20031;-88
2022/04/14 06:09:55;;;;;;;31.05;14.80;;;;;;;;;;6255317;23;20020;-88
2022/04/14 06:12:23;;;;;;;31.42;13.98;;;;;;;;;;6255297;23;20467;-86
2022/04/14 06:14:51;;;;;;;35.88;13.70;;;;;;;;;;6254846;23;20079;-86
2022/04/14 06:17:19;;;;;;;31.25;14.57;;;;;;;;;;6226369;23;20027;-86
2022/04/14 06:19:47;;;;;;;29.77;13.60;;;;;;;;;;6223923;23;20456;-86
2022/04/14 06:22:15;;;;;;;28.67;14.20;;;;;;;;;;6215560;23;20017;-86
2022/04/14 06:24:43;;;;;;;34.22;15.98;;;;;;;;;;6255346;23;20094;-86
2022/04/14 06:27:11;;;;;;;28.48;13.10;;;;;;;;;;6255097;23;20016;-86
2022/04/14 06:29:40;;;;;;;31.77;13.88;;;;;;;;;;6255386;23;20332;-86
2022/04/14 06:32:12;;;;;;;28.33;13.43;;;;;;;;;;6248333;23;20027;-86
2022/04/14 06:34:44;;;;;;;30.67;13.70;;;;;;;;;;6254762;23;20034;-85
2022/04/14 06:37:14;;;;;;;28.83;13.00;;;;;;;;;;6255609;23;20023;-86
2022/04/14 06:39:43;;;;;;;30.95;14.60;;;;;;;;;;6254632;23;20016;-86
2022/04/14 06:42:11;;;;;;;29.63;13.57;;;;;;;;;;6255180;23;20027;-86
2022/04/14 06:44:39;;;;;;;30.15;13.85;;;;;;;;;;6242959;23;20086;-86
2022/04/14 06:47:07;;;;;;;34.72;14.88;;;;;;;;;;6255609;23;20020;-86
2022/04/14 06:49:35;;;;;;;35.58;15.10;;;;;;;;;;6254057;23;20067;-86
2022/04/14 06:52:03;;;;;;;26.60;12.77;;;;;;;;;;6223665;23;20432;-86
2022/04/14 06:54:31;;;;;;;31.85;13.73;;;;;;;;;;6254460;23;20024;-86
2022/04/14 06:56:59;;;;;;;33.75;15.43;;;;;;;;;;6223238;23;20017;-86
2022/04/14 06:59:27;;;;;;;33.60;13.93;;;;;;;;;;6254094;23;20062;-86
2022/04/14 07:01:55;;;;;;;28.70;14.13;;;;;;;;;;6255290;23;20485;-86
2022/04/14 07:04:23;;;;;;;39.63;14.73;;;;;;;;;;6254830;23;20028;-86
2022/04/14 07:06:51;;;;;;;29.40;14.48;;;;;;;;;;6254893;23;20055;-86
2022/04/14 07:09:20;;;;;;;33.40;15.18;;;;;;;;;;6225457;23;20016;-86
2022/04/14 07:11:47;;;;;;;29.02;15.80;;;;;;;;;;6254646;23;20020;-86
2022/04/14 07:14:16;;;;;;;31.90;16.35;;;;;;;;;;6254726;23;20020;-86
2022/04/14 07:16:43;;;;;;;30.00;15.15;;;;;;;;;;6254854;23;20102;-86
2022/04/14 07:19:11;;;;;;;28.42;15.35;;;;;;;;;;6243113;23;20064;-86
2022/04/14 07:21:39;;;;;;;35.17;16.88;;;;;;;;;;6254686;23;20090;-86
2022/04/14 07:24:07;;;;;;;34.55;16.50;;;;;;;;;;6254230;23;20066;-86
2022/04/14 07:26:36;;;;;;;31.60;18.38;;;;;;;;;;6254181;23;20534;-86
2022/04/14 07:29:03;;;;;;;37.45;18.05;;;;;;;;;;6254705;23;20024;-86
2022/04/14 07:31:32;;;;;;;37.60;19.33;;;;;;;;;;6253851;23;20019;-86
2022/04/14 07:34:00;;;;;;;40.08;19.67;;;;;;;;;;6254449;23;20067;-85
2022/04/14 07:36:27;;;;;;;35.53;19.05;;;;;;;;;;6226828;23;20024;-86
2022/04/14 07:39:04;;;;;;;40.58;19.40;;;;;;;;;;6254101;23;20020;-86
2022/04/14 07:41:32;;;;;;;39.58;19.05;;;;;;;;;;6254347;23;20067;-86
2022/04/14 07:43:59;;;;;;;33.67;18.38;;;;;;;;;;6254458;23;20115;-87
2022/04/14 07:46:27;;;;;;;39.00;19.42;;;;;;;;;;6253781;23;20020;-86
2022/04/14 07:48:55;;;;;;;33.22;19.45;;;;;;;;;;6254579;23;20016;-86
2022/04/14 07:51:23;;;;;;;41.28;20.63;;;;;;;;;;6253836;23;20883;-86
2022/04/14 07:53:53;;;;;;;41.97;21.00;;;;;;;;;;6253890;23;20039;-86
2022/04/14 07:56:22;;;;;;;36.03;19.73;;;;;;;;;;6256172;23;20415;-86
2022/04/14 07:58:52;;;;;;;35.00;18.67;;;;;;;;;;6254115;23;20020;-86
2022/04/14 08:01:19;;;;;;;36.83;19.95;;;;;;;;;;6216906;23;20122;-85
2022/04/14 08:03:47;;;;;;;34.35;18.92;;;;;;;;;;6261474;23;20008;-86
2022/04/14 08:06:15;;;;;;;37.33;20.95;;;;;;;;;;6282014;23;20012;-87
2022/04/14 08:08:43;;;;;;;36.78;20.92;;;;;;;;;;6268885;23;20434;-86
2022/04/14 08:11:11;;;;;;;36.78;22.02;;;;;;;;;;6227025;23;20043;-85
2022/04/14 08:13:41;;;;;;;38.33;20.30;;;;;;;;;;6253883;23;20039;-85
2022/04/14 08:16:09;;;;;;;44.85;22.23;;;;;;;;;;6222182;23;20031;-87
2022/04/14 08:18:39;;;;;;;43.78;21.45;;;;;;;;;;6227608;23;20050;-87
2022/04/14 08:21:07;;;;;;;39.88;20.48;;;;;;;;;;6253770;23;20099;-86
2022/04/14 08:23:39;;;;;;;39.17;20.58;;;;;;;;;;6212707;23;20044;-86
2022/04/14 08:26:11;;;;;;;40.60;19.45;;;;;;;;;;6248042;23;20407;-87
2022/04/14 08:28:47;;;;;;;32.42;19.42;;;;;;;;;;6254049;23;20767;-86
2022/04/14 08:31:16;;;;;;;35.85;20.50;;;;;;;;;;6188322;23;20020;-86
2022/04/14 08:33:44;;;;;;;36.22;20.95;;;;;;;;;;6253705;23;20236;-86
2022/04/14 08:36:13;;;;;;;36.67;21.10;;;;;;;;;;6253619;23;20059;-86
2022/04/14 08:38:44;;;;;;;35.47;20.75;;;;;;;;;;6253442;23;20020;-87
2022/04/14 08:41:17;;;;;;;31.90;19.23;;;;;;;;;;6253590;23;20333;-86
2022/04/14 08:44:06;;;;;;;33.70;19.17;;;;;;;;;;6253849;23;20019;-85
2022/04/14 08:46:33;;;;;;;31.15;17.27;;;;;;;;;;6253340;23;20016;-85
2022/04/14 08:49:02;;;;;;;27.10;16.05;;;;;;;;;;6253656;23;20020;-86
2022/04/14 08:51:35;;;;;;;29.73;16.95;;;;;;;;;;6253702;23;20394;-85
2022/04/14 08:54:03;;;;;;;28.88;15.55;;;;;;;;;;6226694;23;20042;-87
2022/04/14 08:56:32;;;;;;;28.00;14.45;;;;;;;;;;6242049;23;20024;-86
2022/04/14 08:59:00;;;;;;;25.38;14.60;;;;;;;;;;6227471;23;20039;-87
2022/04/14 09:01:27;;;;;;;26.55;14.77;;;;;;;;;;6248101;23;20051;-86
2022/04/14 09:03:57;;;;;;;31.30;15.02;;;;;;;;;;6233065;23;20712;-85
2022/04/14 09:06:28;;;;;;;25.85;13.88;;;;;;;;;;6253720;23;20020;-85
2022/04/14 09:08:57;;;;;;;25.83;14.18;;;;;;;;;;6216512;23;20043;-86
2022/04/14 09:11:27;;;;;;;25.10;13.27;;;;;;;;;;6241999;23;20020;-86
2022/04/14 09:13:57;;;;;;;27.92;13.85;;;;;;;;;;6253547;23;20020;-87
2022/04/14 09:16:26;;;;;;;23.55;13.57;;;;;;;;;;6253960;23;20090;-86
2022/04/14 09:18:54;;;;;;;21.52;13.13;;;;;;;;;;6253629;23;20092;-86
2022/04/14 09:21:21;;;;;;;27.35;14.00;;;;;;;;;;6227376;23;20107;-86
2022/04/14 09:23:51;;;;;;;26.52;13.13;;;;;;;;;;6253593;23;20036;-86
2022/04/14 09:26:23;;;;;;;24.48;13.85;;;;;;;;;;6253482;23;20020;-86
2022/04/14 09:29:06;;;;;;;21.63;13.05;;;;;;;;;;6254113;23;20399;-87
2022/04/14 09:31:50;;;;;;;18.95;11.75;;;;;;;;;;6253667;23;20384;-88
2022/04/14 09:34:19;;;;;;;20.20;12.88;;;;;;;;;;6253637;23;20012;-86
2022/04/14 09:37:09;;;;;;;21.58;12.85;;;;;;;;;;6254222;23;20035;-86
2022/04/14 09:39:50;;;;;;;21.48;12.82;;;;;;;;;;6227352;23;20043;-86
2022/04/14 09:42:20;;;;;;;20.30;11.60;;;;;;;;;;6253576;23;20464;-87
2022/04/14 09:44:48;;;;;;;21.63;11.68;;;;;;;;;;6253487;23;20046;-86
2022/04/14 09:47:23;;;;;;;19.17;12.05;;;;;;;;;;6217172;23;20407;-86
2022/04/14 09:49:51;;;;;;;17.50;11.25;;;;;;;;;;6270596;23;20020;-87
2022/04/14 09:52:19;;;;;;;21.52;12.38;;;;;;;;;;6218985;23;20016;-79
2022/04/14 09:54:48;;;;;;;20.58;12.00;;;;;;;;;;6258401;23;20336;-79
2022/04/14 09:57:15;;;;;;;23.67;11.65;;;;;;;;;;6256253;23;20020;-79
2022/04/14 09:59:43;;;;;;;21.45;11.27;;;;;;;;;;6230559;23;20024;-80
2022/04/14 10:02:12;;;;;;;18.55;11.75;;;;;;;;;;6256989;23;20587;-79
2022/04/14 10:04:46;;;;;;;20.85;10.50;;;;;;;;;;6260801;23;20027;-80
2022/04/14 10:07:15;;;;;;;16.05;9.65;;;;;;;;;;6270254;23;20076;-80
2022/04/14 10:09:48;;;;;;;17.10;10.70;;;;;;;;;;6269850;23;20522;-80
2022/04/14 10:12:15;;;;;;;17.85;9.93;;;;;;;;;;6269012;23;20066;-80
2022/04/14 10:14:55;;;;;;;16.63;9.73;;;;;;;;;;6270706;23;20071;-79
2022/04/14 10:17:25;;;;;;;17.98;10.30;;;;;;;;;;6265486;23;20035;-79
2022/04/14 10:19:53;;;;;;;17.52;9.82;;;;;;;;;;6268164;23;20012;-78
2022/04/14 10:22:23;;;;;;;16.10;9.20;;;;;;;;;;6265815;23;20082;-79
2022/04/14 10:24:54;;;;;;;17.13;9.52;;;;;;;;;;6267796;23;20083;-80
2022/04/14 10:27:22;;;;;;;14.93;9.30;;;;;;;;;;6266892;23;20020;-80
2022/04/14 10:29:50;;;;;;;13.85;8.43;;;;;;;;;;6267666;23;20078;-81
2022/04/14 10:32:18;;;;;;;13.88;7.53;;;;;;;;;;6267927;23;20016;-80
2022/04/14 10:34:46;;;;;;;13.50;6.63;;;;;;;;;;6268318;23;20020;-79
2022/04/14 10:37:24;;;;;;;12.65;7.32;;;;;;;;;;6233262;23;20024;-79
2022/04/14 10:39:51;;;;;;;13.52;6.43;;;;;;;;;;6267018;23;20046;-79
2022/04/14 10:42:24;;;;;;;10.07;6.40;;;;;;;;;;6232209;23;20039;-79
2022/04/14 10:44:53;;;;;;;12.27;6.40;;;;;;;;;;6254340;23;20016;-80
2022/04/14 10:47:43;;;;;;;11.25;7.22;;;;;;;;;;6255414;23;20027;-79
2022/04/14 10:50:32;;;;;;;10.93;6.68;;;;;;;;;;6229096;23;20016;-80
2022/04/14 10:53:05;;;;;;;12.38;7.55;;;;;;;;;;6256064;23;20020;-80
2022/04/14 10:55:39;;;;;;;13.93;7.40;;;;;;;;;;6229540;23;20027;-79
2022/04/14 10:58:36;;;;;;;12.68;8.02;;;;;;;;;;6254469;23;20134;-79
2022/04/14 11:01:03;;;;;;;13.65;7.20;;;;;;;;;;6221545;23;20020;-80
2022/04/14 11:03:48;;;;;;;12.75;7.78;;;;;;;;;;6255556;23;20489;-79
2022/04/14 11:06:40;;;;;;;11.23;7.15;;;;;;;;;;6231576;23;20070;-81
2022/04/14 11:09:08;;;;;;;11.90;6.57;;;;;;;;;;6230822;23;20035;-80
2022/04/14 11:12:00;;;;;;;11.63;6.65;;;;;;;;;;6255075;23;20047;-80
2022/04/14 11:14:27;;;;;;;11.35;5.88;;;;;;;;;;6228572;23;20023;-80
2022/04/14 11:16:55;;;;;;;11.50;6.07;;;;;;;;;;6257615;23;20054;-80
2022/04/14 11:19:26;;;;;;;10.80;6.35;;;;;;;;;;6260808;23;20020;-80
2022/04/14 11:22:03;;;;;;;11.05;5.97;;;;;;;;;;6262053;23;20051;-81
2022/04/14 11:24:35;;;;;;;13.15;6.18;;;;;;;;;;6236451;23;20026;-80
2022/04/14 11:27:17;;;;;;;8.70;5.18;;;;;;;;;;6257321;23;20436;-79
2022/04/14 11:29:48;;;;;;;11.68;6.13;;;;;;;;;;6257005;23;20020;-80
2022/04/14 11:32:34;;;;;;;11.27;5.90;;;;;;;;;;6251672;23;20047;-81
2022/04/14 11:35:30;;;;;;;10.90;5.60;;;;;;;;;;6232997;23;20498;-78
2022/04/14 11:37:57;;;;;;;10.20;5.63;;;;;;;;;;6254899;23;20020;-78
2022/04/14 11:40:26;;;;;;;9.75;5.90;;;;;;;;;;6254333;23;20027;-78
2022/04/14 11:42:55;;;;;;;10.43;5.28;;;;;;;;;;6254767;23;20089;-78
2022/04/14 11:45:25;;;;;;;10.20;5.28;;;;;;;;;;6255383;23;20015;-79
2022/04/14 11:48:00;;;;;;;11.05;5.63;;;;;;;;;;6228110;23;20027;-79
2022/04/14 11:50:29;;;;;;;9.18;5.30;;;;;;;;;;6255204;23;20023;-78
2022/04/14 11:52:59;;;;;;;8.88;5.40;;;;;;;;;;6254085;23;20024;-83
2022/04/14 11:55:41;;;;;;;9.82;5.80;;;;;;;;;;6253791;23;20012;-79
2022/04/14 11:58:16;;;;;;;10.43;6.45;;;;;;;;;;6253369;23;20074;-78
2022/04/14 12:00:48;;;;;;;9.70;5.40;;;;;;;;;;6252412;23;20043;-79
2022/04/14 12:03:29;;;;;;;7.78;4.60;;;;;;;;;;6249760;23;20012;-78
2022/04/14 12:06:02;;;;;;;8.40;4.85;;;;;;;;;;6251294;23;20016;-78
2022/04/14 12:08:29;;;;;;;9.63;5.32;;;;;;;;;;6250737;23;20518;-78
2022/04/14 12:11:02;;;;;;;8.70;4.57;;;;;;;;;;6219074;23;20024;-78
2022/04/14 12:13:33;;;;;;;8.25;5.40;;;;;;;;;;6250201;23;20016;-78
2022/04/14 12:16:03;;;;;;;7.72;5.05;;;;;;;;;;6250949;23;20881;-78
2022/04/14 12:18:31;;;;;;;7.57;4.50;;;;;;;;;;6254497;23;20023;-81
2022/04/14 12:20:59;;;;;;;7.30;4.22;;;;;;;;;;6245629;23;20020;-81
2022/04/14 12:23:27;;;;;;;7.28;4.30;;;;;;;;;;6255319;23;20020;-81
2022/04/14 12:25:57;;;;;;;9.02;4.78;;;;;;;;;;6254942;23;20030;-81
2022/04/14 12:28:26;;;;;;;7.07;4.30;;;;;;;;;;6254611;23;20020;-81
2022/04/14 12:30:53;;;;;;;7.60;4.28;;;;;;;;;;6218212;23;20016;-81
2022/04/14 12:33:27;;;;;;;8.90;4.10;;;;;;;;;;6254628;23;20375;-81
2022/04/14 12:36:10;;;;;;;10.02;4.57;;;;;;;;;;6253937;23;20427;-80
2022/04/14 12:38:42;;;;;;;10.65;4.55;;;;;;;;;;6222380;23;20784;-80
2022/04/14 12:41:17;;;;;;;10.23;4.80;;;;;;;;;;6249832;23;20040;-80
2022/04/14 12:43:47;;;;;;;9.18;5.63;;;;;;;;;;6255067;23;20046;-81
2022/04/14 12:46:24;;;;;;;7.68;4.45;;;;;;;;;;6243422;23;20039;-80
2022/04/14 12:49:11;;;;;;;7.25;4.50;;;;;;;;;;6243755;23;20347;-79
2022/04/14 12:51:55;;;;;;;5.45;3.95;;;;;;;;;;6253083;23;20093;-80
2022/04/14 12:54:24;;;;;;;8.25;4.45;;;;;;;;;;6253514;23;20357;-83
2022/04/14 12:56:57;;;;;;;7.50;4.38;;;;;;;;;;6253975;23;20028;-81
2022/04/14 12:59:26;;;;;;;9.43;4.63;;;;;;;;;;6254631;23;20020;-80
2022/04/14 13:02:03;;;;;;;10.25;5.38;;;;;;;;;;6253312;23;20031;-81
2022/04/14 13:04:42;;;;;;;9.85;4.88;;;;;;;;;;6227591;23;20016;-81
2022/04/14 13:07:15;;;;;;;9.48;5.53;;;;;;;;;;6254012;23;20016;-81
2022/04/14 13:09:56;;;;;;;8.85;4.68;;;;;;;;;;6251662;23;20027;-80
2022/04/14 13:12:46;;;;;;;9.30;4.35;;;;;;;;;;6252760;23;20016;-81
2022/04/14 13:15:15;;;;;;;8.95;4.90;;;;;;;;;;6252028;23;20621;-81
2022/04/14 13:17:44;;;;;;;9.48;5.38;;;;;;;;;;6249323;23;20027;-77
2022/04/14 13:20:12;;;;;;;16.48;7.95;;;;;;;;;;6248871;23;20046;-77
2022/04/14 13:22:40;;;;;;;16.70;8.10;;;;;;;;;;6248397;23;20019;-77
2022/04/14 13:25:08;;;;;;;14.80;8.05;;;;;;;;;;6250180;23;20020;-77
2022/04/14 13:27:35;;;;;;;11.85;6.32;;;;;;;;;;6249605;23;20082;-77
2022/04/14 13:30:04;;;;;;;15.35;7.05;;;;;;;;;;6252242;23;20070;-78
2022/04/14 13:32:31;;;;;;;16.25;7.63;;;;;;;;;;6251004;23;20020;-79
2022/04/14 13:34:59;;;;;;;10.90;6.13;;;;;;;;;;6251150;23;20515;-77
2022/04/14 13:37:27;;;;;;;13.70;6.68;;;;;;;;;;6251162;23;20027;-79
2022/04/14 13:39:55;;;;;;;9.50;5.63;;;;;;;;;;6251691;23;20012;-78
2022/04/14 13:42:23;;;;;;;8.52;5.10;;;;;;;;;;6248487;23;20098;-77
2022/04/14 13:44:51;;;;;;;11.45;5.72;;;;;;;;;;6251950;23;20100;-77
2022/04/14 13:47:19;;;;;;;9.23;5.60;;;;;;;;;;6250077;23;20047;-77
2022/04/14 13:49:47;;;;;;;13.05;6.20;;;;;;;;;;6251458;23;20024;-77
2022/04/14 13:52:15;;;;;;;11.18;6.55;;;;;;;;;;6251833;23;20420;-77
2022/04/14 13:54:43;;;;;;;13.75;6.68;;;;;;;;;;6250931;23;20031;-77
2022/04/14 13:57:11;;;;;;;12.45;6.75;;;;;;;;;;6250817;23;20020;-78
2022/04/14 13:59:39;;;;;;;11.52;6.32;;;;;;;;;;6250976;23;20345;-78
2022/04/14 14:02:09;;;;;;;12.27;7.00;;;;;;;;;;6246290;23;20070;-78
2022/04/14 14:04:37;;;;;;;8.63;5.00;;;;;;;;;;6252644;23;20019;-78
2022/04/14 14:07:05;;;;;;;11.18;6.30;;;;;;;;;;6251739;23;20024;-77
2022/04/14 14:09:33;;;;;;;12.63;5.80;;;;;;;;;;6223909;23;20024;-78
2022/04/14 14:12:01;;;;;;;11.52;6.45;;;;;;;;;;6251704;23;20400;-78
2022/04/14 14:14:29;;;;;;;9.73;5.97;;;;;;;;;;6251106;23;20119;-78
2022/04/14 14:16:57;;;;;;;10.65;5.85;;;;;;;;;;6224692;23;20047;-77
2022/04/14 14:19:26;;;;;;;14.80;7.05;;;;;;;;;;6251351;23;20340;-77
2022/04/14 14:21:53;;;;;;;12.32;6.82;;;;;;;;;;6251453;23;20082;-78
2022/04/14 14:24:23;;;;;;;13.88;6.43;;;;;;;;;;6223549;23;20023;-78
2022/04/14 14:26:51;;;;;;;12.10;6.15;;;;;;;;;;6252618;23;20048;-78
2022/04/14 14:29:19;;;;;;;17.15;7.53;;;;;;;;;;6252441;23;20039;-78
2022/04/14 14:31:47;;;;;;;12.90;7.72;;;;;;;;;;6251513;23;20032;-78
2022/04/14 14:34:16;;;;;;;15.88;6.93;;;;;;;;;;6252138;23;20099;-78
2022/04/14 14:36:47;;;;;;;13.82;7.28;;;;;;;;;;6229392;23;20075;-80
2022/04/14 14:39:15;;;;;;;18.35;7.57;;;;;;;;;;6216724;23;20763;-81
2022/04/14 14:41:43;;;;;;;12.20;6.93;;;;;;;;;;6257342;23;20023;-80
2022/04/14 14:44:12;;;;;;;13.35;6.93;;;;;;;;;;6256364;23;20020;-81
2022/04/14 14:46:39;;;;;;;13.60;6.25;;;;;;;;;;6257692;23;20706;-80